sensor_id;sensor_type;location;lat;lon;timestamp;P1;durP1;ratioP1;P2;durP2;ratioP2
40150;SDS011;25866;52.420;10.640;2024-02-26T00:02:15;1.53;;;1.40;;
40150;SDS011;25866;52.420;10.640;2024-02-26T00:04:41;2.20;;;1.20;;
40150;SDS011;25866;52.420;10.640;2024-02-26T00:07:07;2.30;;;1.37;;
40150;SDS011;25866;52.420;10.640;2024-02-26T00:09:33;3.47;;;1.50;;
40150;SDS011;25866;52.420;10.640;2024-02-26T00:12:04;3.33;;;1.40;;
40150;SDS011;25866;52.420;10.640;2024-02-26T00:14:30;4.03;;;1.37;;
40150;SDS011;25866;52.420;10.640;2024-02-26T00:16:56;2.30;;;1.40;;
40150;SDS011;25866;52.420;10.640;2024-02-26T00:19:22;1.77;;;1.27;;
40150;SDS011;25866;52.420;10.640;2024-02-26T00:21:48;6.90;;;2.73;;
40150;SDS011;25866;52.420;10.640;2024-02-26T00:24:13;2.97;;;1.70;;
40150;SDS011;25866;52.420;10.640;2024-02-26T00:26:39;1.77;;;1.50;;
40150;SDS011;25866;52.420;10.640;2024-02-26T00:29:05;3.57;;;1.67;;
40150;SDS011;25866;52.420;10.640;2024-02-26T00:31:31;2.93;;;1.37;;
40150;SDS011;25866;52.420;10.640;2024-02-26T00:33:56;2.67;;;1.67;;
40150;SDS011;25866;52.420;10.640;2024-02-26T00:36:22;1.50;;;1.40;;
40150;SDS011;25866;52.420;10.640;2024-02-26T00:38:48;3.43;;;1.70;;
40150;SDS011;25866;52.420;10.640;2024-02-26T00:41:16;3.60;;;1.87;;
40150;SDS011;25866;52.420;10.640;2024-02-26T00:43:43;2.50;;;1.90;;
40150;SDS011;25866;52.420;10.640;2024-02-26T00:46:08;3.17;;;1.93;;
40150;SDS011;25866;52.420;10.640;2024-02-26T00:48:35;3.33;;;1.90;;
40150;SDS011;25866;52.420;10.640;2024-02-26T00:51:00;3.87;;;2.00;;
40150;SDS011;25866;52.420;10.640;2024-02-26T00:53:26;3.17;;;1.93;;
40150;SDS011;25866;52.420;10.640;2024-02-26T00:55:53;5.33;;;2.73;;
40150;SDS011;25866;52.420;10.640;2024-02-26T00:58:19;7.27;;;2.50;;
40150;SDS011;25866;52.420;10.640;2024-02-26T01:00:45;3.27;;;1.87;;
40150;SDS011;25866;52.420;10.640;2024-02-26T01:03:11;6.93;;;2.03;;
40150;SDS011;25866;52.420;10.640;2024-02-26T01:05:36;6.70;;;2.10;;
40150;SDS011;25866;52.420;10.640;2024-02-26T01:08:03;2.80;;;1.87;;
40150;SDS011;25866;52.420;10.640;2024-02-26T01:10:29;3.67;;;2.07;;
40150;SDS011;25866;52.420;10.640;2024-02-26T01:12:56;3.93;;;2.10;;
40150;SDS011;25866;52.420;10.640;2024-02-26T01:15:21;2.63;;;1.77;;
40150;SDS011;25866;52.420;10.640;2024-02-26T01:17:49;3.33;;;2.20;;
40150;SDS011;25866;52.420;10.640;2024-02-26T01:20:17;2.30;;;2.00;;
40150;SDS011;25866;52.420;10.640;2024-02-26T01:22:44;3.73;;;1.90;;
40150;SDS011;25866;52.420;10.640;2024-02-26T01:25:10;2.73;;;1.73;;
40150;SDS011;25866;52.420;10.640;2024-02-26T01:27:36;2.73;;;1.73;;
40150;SDS011;25866;52.420;10.640;2024-02-26T01:30:05;2.83;;;2.03;;
40150;SDS011;25866;52.420;10.640;2024-02-26T01:32:32;2.97;;;2.00;;
40150;SDS011;25866;52.420;10.640;2024-02-26T01:34:58;3.60;;;2.00;;
40150;SDS011;25866;52.420;10.640;2024-02-26T01:37:25;3.70;;;2.50;;
40150;SDS011;25866;52.420;10.640;2024-02-26T01:39:51;5.50;;;2.97;;
40150;SDS011;25866;52.420;10.640;2024-02-26T01:42:17;2.90;;;1.97;;
40150;SDS011;25866;52.420;10.640;2024-02-26T01:44:42;3.40;;;2.13;;
40150;SDS011;25866;52.420;10.640;2024-02-26T01:47:11;4.33;;;2.30;;
40150;SDS011;25866;52.420;10.640;2024-02-26T01:49:39;2.60;;;1.80;;
40150;SDS011;25866;52.420;10.640;2024-02-26T01:52:06;3.13;;;2.03;;
40150;SDS011;25866;52.420;10.640;2024-02-26T01:54:37;3.20;;;2.40;;
40150;SDS011;25866;52.420;10.640;2024-02-26T01:57:05;3.77;;;2.40;;
40150;SDS011;25866;52.420;10.640;2024-02-26T01:59:32;3.10;;;2.30;;
40150;SDS011;25866;52.420;10.640;2024-02-26T02:02:05;3.33;;;2.27;;
40150;SDS011;25866;52.420;10.640;2024-02-26T02:04:32;3.93;;;2.70;;
40150;SDS011;25866;52.420;10.640;2024-02-26T02:06:59;3.97;;;2.37;;
40150;SDS011;25866;52.420;10.640;2024-02-26T02:09:27;3.70;;;2.40;;
40150;SDS011;25866;52.420;10.640;2024-02-26T02:11:53;3.33;;;2.30;;
40150;SDS011;25866;52.420;10.640;2024-02-26T02:14:19;3.13;;;2.43;;
40150;SDS011;25866;52.420;10.640;2024-02-26T02:16:45;3.57;;;2.43;;
40150;SDS011;25866;52.420;10.640;2024-02-26T02:19:12;3.13;;;2.30;;
40150;SDS011;25866;52.420;10.640;2024-02-26T02:21:38;3.17;;;2.30;;
40150;SDS011;25866;52.420;10.640;2024-02-26T02:24:04;4.30;;;2.70;;
40150;SDS011;25866;52.420;10.640;2024-02-26T02:26:30;3.33;;;2.33;;
40150;SDS011;25866;52.420;10.640;2024-02-26T02:28:56;4.63;;;2.27;;
40150;SDS011;25866;52.420;10.640;2024-02-26T02:31:23;2.93;;;2.23;;
40150;SDS011;25866;52.420;10.640;2024-02-26T02:33:48;2.80;;;2.10;;
40150;SDS011;25866;52.420;10.640;2024-02-26T02:36:15;2.80;;;2.10;;
40150;SDS011;25866;52.420;10.640;2024-02-26T02:38:50;3.47;;;2.27;;
40150;SDS011;25866;52.420;10.640;2024-02-26T02:41:16;4.07;;;2.27;;
40150;SDS011;25866;52.420;10.640;2024-02-26T02:43:42;3.23;;;2.30;;
40150;SDS011;25866;52.420;10.640;2024-02-26T02:46:08;4.00;;;2.30;;
40150;SDS011;25866;52.420;10.640;2024-02-26T02:48:36;2.30;;;1.80;;
40150;SDS011;25866;52.420;10.640;2024-02-26T02:51:02;4.37;;;2.20;;
40150;SDS011;25866;52.420;10.640;2024-02-26T02:53:29;2.67;;;2.00;;
40150;SDS011;25866;52.420;10.640;2024-02-26T02:55:55;2.70;;;2.00;;
40150;SDS011;25866;52.420;10.640;2024-02-26T02:58:21;3.37;;;2.27;;
40150;SDS011;25866;52.420;10.640;2024-02-26T03:00:47;3.27;;;2.10;;
40150;SDS011;25866;52.420;10.640;2024-02-26T03:03:13;3.00;;;2.20;;
40150;SDS011;25866;52.420;10.640;2024-02-26T03:05:38;2.23;;;1.80;;
40150;SDS011;25866;52.420;10.640;2024-02-26T03:08:04;3.87;;;2.07;;
40150;SDS011;25866;52.420;10.640;2024-02-26T03:10:30;4.73;;;2.30;;
40150;SDS011;25866;52.420;10.640;2024-02-26T03:12:56;3.20;;;2.10;;
40150;SDS011;25866;52.420;10.640;2024-02-26T03:15:22;2.97;;;1.97;;
40150;SDS011;25866;52.420;10.640;2024-02-26T03:17:48;2.90;;;2.40;;
40150;SDS011;25866;52.420;10.640;2024-02-26T03:20:13;4.00;;;2.00;;
40150;SDS011;25866;52.420;10.640;2024-02-26T03:22:39;4.27;;;2.33;;
40150;SDS011;25866;52.420;10.640;2024-02-26T03:25:05;5.77;;;2.57;;
40150;SDS011;25866;52.420;10.640;2024-02-26T03:27:32;4.03;;;2.40;;
40150;SDS011;25866;52.420;10.640;2024-02-26T03:29:59;2.53;;;2.10;;
40150;SDS011;25866;52.420;10.640;2024-02-26T03:32:24;2.90;;;2.30;;
40150;SDS011;25866;52.420;10.640;2024-02-26T03:34:50;5.10;;;3.10;;
40150;SDS011;25866;52.420;10.640;2024-02-26T03:37:19;6.77;;;2.70;;
40150;SDS011;25866;52.420;10.640;2024-02-26T03:39:45;4.57;;;3.27;;
40150;SDS011;25866;52.420;10.640;2024-02-26T03:42:11;4.50;;;2.57;;
40150;SDS011;25866;52.420;10.640;2024-02-26T03:44:36;3.10;;;2.53;;
40150;SDS011;25866;52.420;10.640;2024-02-26T03:47:02;4.70;;;2.73;;
40150;SDS011;25866;52.420;10.640;2024-02-26T03:49:28;3.70;;;2.60;;
40150;SDS011;25866;52.420;10.640;2024-02-26T03:51:54;4.03;;;2.77;;
40150;SDS011;25866;52.420;10.640;2024-02-26T03:54:20;5.00;;;2.53;;
40150;SDS011;25866;52.420;10.640;2024-02-26T03:56:45;3.07;;;2.73;;
40150;SDS011;25866;52.420;10.640;2024-02-26T03:59:11;4.33;;;2.83;;
40150;SDS011;25866;52.420;10.640;2024-02-26T04:01:37;4.77;;;2.93;;
40150;SDS011;25866;52.420;10.640;2024-02-26T04:04:03;3.10;;;2.67;;
40150;SDS011;25866;52.420;10.640;2024-02-26T04:06:29;7.87;;;2.80;;
40150;SDS011;25866;52.420;10.640;2024-02-26T04:08:55;4.73;;;2.50;;
40150;SDS011;25866;52.420;10.640;2024-02-26T04:11:21;4.80;;;2.80;;
40150;SDS011;25866;52.420;10.640;2024-02-26T04:13:47;4.10;;;2.57;;
40150;SDS011;25866;52.420;10.640;2024-02-26T04:16:16;4.93;;;3.07;;
40150;SDS011;25866;52.420;10.640;2024-02-26T04:18:41;4.97;;;2.93;;
40150;SDS011;25866;52.420;10.640;2024-02-26T04:21:07;4.33;;;3.07;;
40150;SDS011;25866;52.420;10.640;2024-02-26T04:23:33;4.07;;;3.10;;
40150;SDS011;25866;52.420;10.640;2024-02-26T04:25:59;4.30;;;3.13;;
40150;SDS011;25866;52.420;10.640;2024-02-26T04:28:25;3.87;;;3.13;;
40150;SDS011;25866;52.420;10.640;2024-02-26T04:30:54;4.63;;;3.67;;
40150;SDS011;25866;52.420;10.640;2024-02-26T04:33:20;4.80;;;3.53;;
40150;SDS011;25866;52.420;10.640;2024-02-26T04:35:46;6.47;;;3.20;;
40150;SDS011;25866;52.420;10.640;2024-02-26T04:38:11;5.40;;;3.53;;
40150;SDS011;25866;52.420;10.640;2024-02-26T04:40:37;5.13;;;3.63;;
40150;SDS011;25866;52.420;10.640;2024-02-26T04:43:03;4.73;;;3.57;;
40150;SDS011;25866;52.420;10.640;2024-02-26T04:45:29;4.20;;;3.30;;
40150;SDS011;25866;52.420;10.640;2024-02-26T04:47:55;3.67;;;3.20;;
40150;SDS011;25866;52.420;10.640;2024-02-26T04:50:20;5.17;;;3.73;;
40150;SDS011;25866;52.420;10.640;2024-02-26T04:52:46;4.33;;;3.37;;
40150;SDS011;25866;52.420;10.640;2024-02-26T04:55:12;4.23;;;3.53;;
40150;SDS011;25866;52.420;10.640;2024-02-26T04:57:37;4.67;;;3.87;;
40150;SDS011;25866;52.420;10.640;2024-02-26T05:00:04;4.63;;;3.80;;
40150;SDS011;25866;52.420;10.640;2024-02-26T05:02:30;5.03;;;3.77;;
40150;SDS011;25866;52.420;10.640;2024-02-26T05:04:58;5.93;;;3.70;;
40150;SDS011;25866;52.420;10.640;2024-02-26T05:07:24;5.37;;;4.10;;
40150;SDS011;25866;52.420;10.640;2024-02-26T05:09:50;5.00;;;3.93;;
40150;SDS011;25866;52.420;10.640;2024-02-26T05:12:16;5.70;;;3.90;;
40150;SDS011;25866;52.420;10.640;2024-02-26T05:14:42;6.97;;;4.00;;
40150;SDS011;25866;52.420;10.640;2024-02-26T05:17:08;5.43;;;3.90;;
40150;SDS011;25866;52.420;10.640;2024-02-26T05:19:33;5.10;;;3.70;;
40150;SDS011;25866;52.420;10.640;2024-02-26T05:21:59;4.77;;;3.57;;
40150;SDS011;25866;52.420;10.640;2024-02-26T05:24:25;4.83;;;4.00;;
40150;SDS011;25866;52.420;10.640;2024-02-26T05:26:51;4.43;;;3.43;;
40150;SDS011;25866;52.420;10.640;2024-02-26T05:29:16;5.00;;;3.50;;
40150;SDS011;25866;52.420;10.640;2024-02-26T05:31:42;5.83;;;3.90;;
40150;SDS011;25866;52.420;10.640;2024-02-26T05:34:08;4.00;;;3.40;;
40150;SDS011;25866;52.420;10.640;2024-02-26T05:36:37;5.33;;;3.90;;
40150;SDS011;25866;52.420;10.640;2024-02-26T05:39:03;5.10;;;3.67;;
40150;SDS011;25866;52.420;10.640;2024-02-26T05:41:29;6.93;;;3.50;;
40150;SDS011;25866;52.420;10.640;2024-02-26T05:43:55;7.83;;;4.00;;
40150;SDS011;25866;52.420;10.640;2024-02-26T05:46:21;6.30;;;3.43;;
40150;SDS011;25866;52.420;10.640;2024-02-26T05:48:48;6.63;;;3.90;;
40150;SDS011;25866;52.420;10.640;2024-02-26T05:51:15;3.73;;;3.33;;
40150;SDS011;25866;52.420;10.640;2024-02-26T05:53:41;4.60;;;3.33;;
40150;SDS011;25866;52.420;10.640;2024-02-26T05:56:07;5.80;;;3.90;;
40150;SDS011;25866;52.420;10.640;2024-02-26T05:58:33;9.30;;;3.73;;
40150;SDS011;25866;52.420;10.640;2024-02-26T06:00:59;5.60;;;3.73;;
40150;SDS011;25866;52.420;10.640;2024-02-26T06:03:25;4.27;;;3.40;;
40150;SDS011;25866;52.420;10.640;2024-02-26T06:05:51;7.17;;;3.77;;
40150;SDS011;25866;52.420;10.640;2024-02-26T06:08:17;5.77;;;3.97;;
40150;SDS011;25866;52.420;10.640;2024-02-26T06:10:43;4.63;;;3.77;;
40150;SDS011;25866;52.420;10.640;2024-02-26T06:13:09;5.70;;;3.50;;
40150;SDS011;25866;52.420;10.640;2024-02-26T06:15:34;4.53;;;3.40;;
40150;SDS011;25866;52.420;10.640;2024-02-26T06:18:00;5.17;;;3.17;;
40150;SDS011;25866;52.420;10.640;2024-02-26T06:20:26;4.57;;;3.60;;
40150;SDS011;25866;52.420;10.640;2024-02-26T06:22:52;4.70;;;3.57;;
40150;SDS011;25866;52.420;10.640;2024-02-26T06:25:17;5.00;;;3.83;;
40150;SDS011;25866;52.420;10.640;2024-02-26T06:27:43;7.37;;;3.40;;
40150;SDS011;25866;52.420;10.640;2024-02-26T06:30:09;4.50;;;3.27;;
40150;SDS011;25866;52.420;10.640;2024-02-26T06:32:36;8.03;;;3.50;;
40150;SDS011;25866;52.420;10.640;2024-02-26T06:35:05;8.33;;;3.30;;
40150;SDS011;25866;52.420;10.640;2024-02-26T06:37:33;3.97;;;3.20;;
40150;SDS011;25866;52.420;10.640;2024-02-26T06:39:59;5.50;;;3.57;;
40150;SDS011;25866;52.420;10.640;2024-02-26T06:42:25;5.30;;;3.80;;
40150;SDS011;25866;52.420;10.640;2024-02-26T06:44:51;5.47;;;3.20;;
40150;SDS011;25866;52.420;10.640;2024-02-26T06:47:17;4.10;;;3.30;;
40150;SDS011;25866;52.420;10.640;2024-02-26T06:49:42;7.53;;;3.40;;
40150;SDS011;25866;52.420;10.640;2024-02-26T06:52:09;5.87;;;3.50;;
40150;SDS011;25866;52.420;10.640;2024-02-26T06:54:34;3.83;;;3.00;;
40150;SDS011;25866;52.420;10.640;2024-02-26T06:57:00;4.27;;;3.10;;
40150;SDS011;25866;52.420;10.640;2024-02-26T06:59:26;5.23;;;3.23;;
40150;SDS011;25866;52.420;10.640;2024-02-26T07:01:52;4.20;;;2.87;;
40150;SDS011;25866;52.420;10.640;2024-02-26T07:04:19;5.13;;;3.30;;
40150;SDS011;25866;52.420;10.640;2024-02-26T07:06:45;5.03;;;3.10;;
40150;SDS011;25866;52.420;10.640;2024-02-26T07:09:12;5.07;;;3.07;;
40150;SDS011;25866;52.420;10.640;2024-02-26T07:11:39;5.73;;;3.20;;
40150;SDS011;25866;52.420;10.640;2024-02-26T07:14:07;5.20;;;3.07;;
40150;SDS011;25866;52.420;10.640;2024-02-26T07:16:34;4.33;;;3.27;;
40150;SDS011;25866;52.420;10.640;2024-02-26T07:18:59;4.97;;;3.17;;
40150;SDS011;25866;52.420;10.640;2024-02-26T07:21:25;3.93;;;2.87;;
40150;SDS011;25866;52.420;10.640;2024-02-26T07:23:51;3.57;;;2.90;;
40150;SDS011;25866;52.420;10.640;2024-02-26T07:26:17;5.23;;;3.10;;
40150;SDS011;25866;52.420;10.640;2024-02-26T07:28:44;5.23;;;3.27;;
40150;SDS011;25866;52.420;10.640;2024-02-26T07:31:10;5.43;;;2.97;;
40150;SDS011;25866;52.420;10.640;2024-02-26T07:33:36;4.50;;;3.00;;
40150;SDS011;25866;52.420;10.640;2024-02-26T07:36:01;3.57;;;2.67;;
40150;SDS011;25866;52.420;10.640;2024-02-26T07:38:27;3.53;;;2.70;;
40150;SDS011;25866;52.420;10.640;2024-02-26T07:40:53;4.13;;;2.80;;
40150;SDS011;25866;52.420;10.640;2024-02-26T07:43:19;4.50;;;2.80;;
40150;SDS011;25866;52.420;10.640;2024-02-26T07:45:45;3.13;;;2.50;;
40150;SDS011;25866;52.420;10.640;2024-02-26T07:48:10;5.97;;;3.10;;
40150;SDS011;25866;52.420;10.640;2024-02-26T07:50:37;4.07;;;2.70;;
40150;SDS011;25866;52.420;10.640;2024-02-26T07:53:03;4.27;;;3.07;;
40150;SDS011;25866;52.420;10.640;2024-02-26T07:55:28;3.80;;;2.90;;
40150;SDS011;25866;52.420;10.640;2024-02-26T07:57:54;5.90;;;3.37;;
40150;SDS011;25866;52.420;10.640;2024-02-26T08:00:20;5.13;;;2.67;;
40150;SDS011;25866;52.420;10.640;2024-02-26T08:02:46;4.63;;;2.70;;
40150;SDS011;25866;52.420;10.640;2024-02-26T08:05:12;3.80;;;2.90;;
40150;SDS011;25866;52.420;10.640;2024-02-26T08:07:38;3.97;;;2.40;;
40150;SDS011;25866;52.420;10.640;2024-02-26T08:10:03;4.63;;;2.70;;
40150;SDS011;25866;52.420;10.640;2024-02-26T08:12:29;4.00;;;2.50;;
40150;SDS011;25866;52.420;10.640;2024-02-26T08:14:55;4.10;;;3.00;;
40150;SDS011;25866;52.420;10.640;2024-02-26T08:17:21;3.97;;;2.47;;
40150;SDS011;25866;52.420;10.640;2024-02-26T08:19:47;3.73;;;2.53;;
40150;SDS011;25866;52.420;10.640;2024-02-26T08:22:13;3.80;;;2.40;;
40150;SDS011;25866;52.420;10.640;2024-02-26T08:24:44;4.87;;;2.30;;
40150;SDS011;25866;52.420;10.640;2024-02-26T08:27:10;3.43;;;2.50;;
40150;SDS011;25866;52.420;10.640;2024-02-26T08:29:35;3.83;;;2.40;;
40150;SDS011;25866;52.420;10.640;2024-02-26T08:32:01;3.40;;;2.53;;
40150;SDS011;25866;52.420;10.640;2024-02-26T08:34:27;5.00;;;3.30;;
40150;SDS011;25866;52.420;10.640;2024-02-26T08:36:53;4.17;;;2.30;;
40150;SDS011;25866;52.420;10.640;2024-02-26T08:39:19;2.70;;;2.20;;
40150;SDS011;25866;52.420;10.640;2024-02-26T08:41:45;3.47;;;2.43;;
40150;SDS011;25866;52.420;10.640;2024-02-26T08:44:11;4.63;;;2.70;;
40150;SDS011;25866;52.420;10.640;2024-02-26T08:46:37;3.70;;;2.67;;
40150;SDS011;25866;52.420;10.640;2024-02-26T08:49:02;10.47;;;2.83;;
40150;SDS011;25866;52.420;10.640;2024-02-26T08:51:29;3.57;;;2.50;;
40150;SDS011;25866;52.420;10.640;2024-02-26T08:53:54;5.80;;;3.87;;
40150;SDS011;25866;52.420;10.640;2024-02-26T08:56:20;3.80;;;2.80;;
40150;SDS011;25866;52.420;10.640;2024-02-26T08:58:46;3.00;;;2.33;;
40150;SDS011;25866;52.420;10.640;2024-02-26T09:01:14;4.30;;;2.50;;
40150;SDS011;25866;52.420;10.640;2024-02-26T09:03:40;6.43;;;2.70;;
40150;SDS011;25866;52.420;10.640;2024-02-26T09:06:05;4.43;;;2.67;;
40150;SDS011;25866;52.420;10.640;2024-02-26T09:08:34;4.47;;;2.90;;
40150;SDS011;25866;52.420;10.640;2024-02-26T09:11:01;5.23;;;2.87;;
40150;SDS011;25866;52.420;10.640;2024-02-26T09:13:28;4.13;;;2.70;;
40150;SDS011;25866;52.420;10.640;2024-02-26T09:15:54;3.87;;;2.70;;
40150;SDS011;25866;52.420;10.640;2024-02-26T09:18:20;6.67;;;3.33;;
40150;SDS011;25866;52.420;10.640;2024-02-26T09:20:46;6.67;;;3.03;;
40150;SDS011;25866;52.420;10.640;2024-02-26T09:23:11;3.77;;;2.67;;
40150;SDS011;25866;52.420;10.640;2024-02-26T09:25:37;5.73;;;2.70;;
40150;SDS011;25866;52.420;10.640;2024-02-26T09:28:03;5.10;;;3.43;;
40150;SDS011;25866;52.420;10.640;2024-02-26T09:30:29;5.47;;;2.63;;
40150;SDS011;25866;52.420;10.640;2024-02-26T09:32:55;4.77;;;2.60;;
40150;SDS011;25866;52.420;10.640;2024-02-26T09:35:20;3.83;;;2.53;;
40150;SDS011;25866;52.420;10.640;2024-02-26T09:37:46;9.03;;;2.70;;
40150;SDS011;25866;52.420;10.640;2024-02-26T09:40:14;3.93;;;2.33;;
40150;SDS011;25866;52.420;10.640;2024-02-26T09:42:43;4.60;;;2.60;;
40150;SDS011;25866;52.420;10.640;2024-02-26T09:45:21;4.30;;;2.77;;
40150;SDS011;25866;52.420;10.640;2024-02-26T09:47:48;4.83;;;2.90;;
40150;SDS011;25866;52.420;10.640;2024-02-26T09:50:17;5.57;;;3.00;;
40150;SDS011;25866;52.420;10.640;2024-02-26T09:52:43;5.80;;;2.40;;
40150;SDS011;25866;52.420;10.640;2024-02-26T09:55:09;4.97;;;2.67;;
40150;SDS011;25866;52.420;10.640;2024-02-26T09:57:38;3.47;;;2.40;;
40150;SDS011;25866;52.420;10.640;2024-02-26T10:00:10;4.50;;;2.90;;
40150;SDS011;25866;52.420;10.640;2024-02-26T10:02:43;5.40;;;2.43;;
40150;SDS011;25866;52.420;10.640;2024-02-26T10:05:12;3.40;;;2.23;;
40150;SDS011;25866;52.420;10.640;2024-02-26T10:07:42;4.17;;;2.60;;
40150;SDS011;25866;52.420;10.640;2024-02-26T10:10:10;3.57;;;2.20;;
40150;SDS011;25866;52.420;10.640;2024-02-26T10:12:36;3.97;;;2.40;;
40150;SDS011;25866;52.420;10.640;2024-02-26T10:15:01;4.67;;;3.00;;
40150;SDS011;25866;52.420;10.640;2024-02-26T10:17:27;2.47;;;2.27;;
40150;SDS011;25866;52.420;10.640;2024-02-26T10:19:54;3.20;;;2.40;;
40150;SDS011;25866;52.420;10.640;2024-02-26T10:22:22;3.60;;;2.50;;
40150;SDS011;25866;52.420;10.640;2024-02-26T10:24:48;3.80;;;2.70;;
40150;SDS011;25866;52.420;10.640;2024-02-26T10:27:13;3.43;;;2.47;;
40150;SDS011;25866;52.420;10.640;2024-02-26T10:29:40;3.00;;;2.30;;
40150;SDS011;25866;52.420;10.640;2024-02-26T10:32:08;3.20;;;2.53;;
40150;SDS011;25866;52.420;10.640;2024-02-26T10:34:35;5.70;;;2.97;;
40150;SDS011;25866;52.420;10.640;2024-02-26T10:37:03;7.07;;;2.70;;
40150;SDS011;25866;52.420;10.640;2024-02-26T10:39:30;4.27;;;3.00;;
40150;SDS011;25866;52.420;10.640;2024-02-26T10:41:55;4.17;;;3.00;;
40150;SDS011;25866;52.420;10.640;2024-02-26T10:44:21;3.53;;;2.73;;
40150;SDS011;25866;52.420;10.640;2024-02-26T10:46:47;3.80;;;2.70;;
40150;SDS011;25866;52.420;10.640;2024-02-26T10:49:16;4.60;;;2.43;;
40150;SDS011;25866;52.420;10.640;2024-02-26T10:51:45;2.90;;;2.40;;
40150;SDS011;25866;52.420;10.640;2024-02-26T10:54:25;4.73;;;3.10;;
40150;SDS011;25866;52.420;10.640;2024-02-26T10:56:58;6.73;;;2.87;;
40150;SDS011;25866;52.420;10.640;2024-02-26T10:59:26;5.77;;;3.13;;
40150;SDS011;25866;52.420;10.640;2024-02-26T11:01:51;33.00;;;16.00;;
40150;SDS011;25866;52.420;10.640;2024-02-26T11:04:17;20.27;;;10.27;;
40150;SDS011;25866;52.420;10.640;2024-02-26T11:06:47;6.33;;;4.10;;
40150;SDS011;25866;52.420;10.640;2024-02-26T11:09:14;4.50;;;3.13;;
40150;SDS011;25866;52.420;10.640;2024-02-26T11:11:41;4.70;;;3.27;;
40150;SDS011;25866;52.420;10.640;2024-02-26T11:14:08;5.00;;;3.50;;
40150;SDS011;25866;52.420;10.640;2024-02-26T11:16:35;5.80;;;3.67;;
40150;SDS011;25866;52.420;10.640;2024-02-26T11:19:03;7.20;;;4.00;;
40150;SDS011;25866;52.420;10.640;2024-02-26T11:21:33;7.43;;;4.27;;
40150;SDS011;25866;52.420;10.640;2024-02-26T11:24:13;6.20;;;3.83;;
40150;SDS011;25866;52.420;10.640;2024-02-26T11:26:57;5.80;;;3.80;;
40150;SDS011;25866;52.420;10.640;2024-02-26T11:29:27;5.03;;;3.37;;
40150;SDS011;25866;52.420;10.640;2024-02-26T11:31:58;6.70;;;3.90;;
40150;SDS011;25866;52.420;10.640;2024-02-26T11:34:25;4.90;;;3.87;;
40150;SDS011;25866;52.420;10.640;2024-02-26T11:36:52;4.73;;;3.37;;
40150;SDS011;25866;52.420;10.640;2024-02-26T11:39:18;4.50;;;3.53;;
40150;SDS011;25866;52.420;10.640;2024-02-26T11:41:45;6.67;;;3.60;;
40150;SDS011;25866;52.420;10.640;2024-02-26T11:44:11;5.80;;;3.50;;
40150;SDS011;25866;52.420;10.640;2024-02-26T11:46:40;5.10;;;3.47;;
40150;SDS011;25866;52.420;10.640;2024-02-26T11:51:56;5.37;;;3.40;;
40150;SDS011;25866;52.420;10.640;2024-02-26T11:57:20;5.30;;;3.70;;
40150;SDS011;25866;52.420;10.640;2024-02-26T12:02:45;7.07;;;3.60;;
40150;SDS011;25866;52.420;10.640;2024-02-26T12:05:15;5.93;;;4.57;;
40150;SDS011;25866;52.420;10.640;2024-02-26T12:07:46;5.90;;;4.13;;
40150;SDS011;25866;52.420;10.640;2024-02-26T12:10:26;5.83;;;4.10;;
40150;SDS011;25866;52.420;10.640;2024-02-26T12:13:00;5.00;;;4.03;;
40150;SDS011;25866;52.420;10.640;2024-02-26T12:16:21;4.87;;;3.70;;
40150;SDS011;25866;52.420;10.640;2024-02-26T12:18:18;5.77;;;4.27;;
40150;SDS011;25866;52.420;10.640;2024-02-26T12:20:45;6.07;;;3.80;;
40150;SDS011;25866;52.420;10.640;2024-02-26T12:23:15;6.37;;;3.80;;
40150;SDS011;25866;52.420;10.640;2024-02-26T12:25:44;5.83;;;4.17;;
40150;SDS011;25866;52.420;10.640;2024-02-26T12:28:13;5.33;;;4.03;;
40150;SDS011;25866;52.420;10.640;2024-02-26T12:30:39;5.63;;;4.30;;
40150;SDS011;25866;52.420;10.640;2024-02-26T12:33:05;7.60;;;4.47;;
40150;SDS011;25866;52.420;10.640;2024-02-26T12:35:33;6.60;;;4.80;;
40150;SDS011;25866;52.420;10.640;2024-02-26T12:38:00;8.40;;;5.73;;
40150;SDS011;25866;52.420;10.640;2024-02-26T12:40:29;7.10;;;4.43;;
40150;SDS011;25866;52.420;10.640;2024-02-26T12:42:55;7.07;;;4.43;;
40150;SDS011;25866;52.420;10.640;2024-02-26T12:45:21;10.90;;;5.10;;
40150;SDS011;25866;52.420;10.640;2024-02-26T12:47:47;15.73;;;8.07;;
40150;SDS011;25866;52.420;10.640;2024-02-26T12:50:15;14.30;;;9.13;;
40150;SDS011;25866;52.420;10.640;2024-02-26T12:52:44;10.07;;;5.93;;
40150;SDS011;25866;52.420;10.640;2024-02-26T12:55:14;8.60;;;6.00;;
40150;SDS011;25866;52.420;10.640;2024-02-26T12:57:42;6.43;;;4.33;;
40150;SDS011;25866;52.420;10.640;2024-02-26T13:00:11;7.67;;;4.83;;
40150;SDS011;25866;52.420;10.640;2024-02-26T13:02:40;6.13;;;4.40;;
40150;SDS011;25866;52.420;10.640;2024-02-26T13:05:09;6.77;;;4.67;;
40150;SDS011;25866;52.420;10.640;2024-02-26T13:07:42;5.90;;;4.70;;
40150;SDS011;25866;52.420;10.640;2024-02-26T13:10:09;6.97;;;5.63;;
40150;SDS011;25866;52.420;10.640;2024-02-26T13:12:37;11.07;;;6.47;;
40150;SDS011;25866;52.420;10.640;2024-02-26T13:15:15;7.77;;;5.80;;
40150;SDS011;25866;52.420;10.640;2024-02-26T13:17:43;9.93;;;6.40;;
40150;SDS011;25866;52.420;10.640;2024-02-26T13:20:09;8.03;;;5.27;;
40150;SDS011;25866;52.420;10.640;2024-02-26T13:22:36;8.07;;;5.23;;
40150;SDS011;25866;52.420;10.640;2024-02-26T13:25:02;9.47;;;6.33;;
40150;SDS011;25866;52.420;10.640;2024-02-26T13:27:28;11.43;;;6.63;;
40150;SDS011;25866;52.420;10.640;2024-02-26T13:30:12;7.63;;;5.83;;
40150;SDS011;25866;52.420;10.640;2024-02-26T13:32:39;6.30;;;5.10;;
40150;SDS011;25866;52.420;10.640;2024-02-26T13:37:33;12.87;;;7.37;;
40150;SDS011;25866;52.420;10.640;2024-02-26T13:42:47;6.53;;;4.70;;
40150;SDS011;25866;52.420;10.640;2024-02-26T13:45:13;7.17;;;4.77;;
40150;SDS011;25866;52.420;10.640;2024-02-26T13:47:39;6.57;;;4.80;;
40150;SDS011;25866;52.420;10.640;2024-02-26T13:50:07;8.13;;;4.73;;
40150;SDS011;25866;52.420;10.640;2024-02-26T13:52:33;4.97;;;4.07;;
40150;SDS011;25866;52.420;10.640;2024-02-26T13:54:59;6.73;;;4.50;;
40150;SDS011;25866;52.420;10.640;2024-02-26T13:57:25;6.77;;;4.80;;
40150;SDS011;25866;52.420;10.640;2024-02-26T13:59:51;5.87;;;4.50;;
40150;SDS011;25866;52.420;10.640;2024-02-26T14:02:17;6.77;;;4.50;;
40150;SDS011;25866;52.420;10.640;2024-02-26T14:04:43;6.70;;;4.43;;
40150;SDS011;25866;52.420;10.640;2024-02-26T14:07:09;7.00;;;5.17;;
40150;SDS011;25866;52.420;10.640;2024-02-26T14:09:37;8.53;;;4.73;;
40150;SDS011;25866;52.420;10.640;2024-02-26T14:12:03;7.13;;;5.07;;
40150;SDS011;25866;52.420;10.640;2024-02-26T14:14:29;8.50;;;5.73;;
40150;SDS011;25866;52.420;10.640;2024-02-26T14:16:58;10.53;;;5.40;;
40150;SDS011;25866;52.420;10.640;2024-02-26T14:19:37;7.17;;;5.43;;
40150;SDS011;25866;52.420;10.640;2024-02-26T14:22:05;7.20;;;5.37;;
40150;SDS011;25866;52.420;10.640;2024-02-26T14:24:31;9.17;;;5.33;;
40150;SDS011;25866;52.420;10.640;2024-02-26T14:26:58;7.97;;;5.00;;
40150;SDS011;25866;52.420;10.640;2024-02-26T14:29:25;6.13;;;4.77;;
40150;SDS011;25866;52.420;10.640;2024-02-26T14:31:50;5.17;;;4.53;;
40150;SDS011;25866;52.420;10.640;2024-02-26T14:34:16;9.23;;;4.73;;
40150;SDS011;25866;52.420;10.640;2024-02-26T14:36:44;6.03;;;4.70;;
40150;SDS011;25866;52.420;10.640;2024-02-26T14:39:09;5.43;;;4.73;;
40150;SDS011;25866;52.420;10.640;2024-02-26T14:41:38;5.73;;;4.40;;
40150;SDS011;25866;52.420;10.640;2024-02-26T14:44:04;7.57;;;4.53;;
40150;SDS011;25866;52.420;10.640;2024-02-26T14:46:30;16.70;;;10.45;;